Terminal Aerodrome Forecast
Issued by NWS

Home | Current Version | Previous Version | Text Only | Print | Product List | Glossary On
Versions: 1 2 3 4 5 6 7 8 9 10 11 12 13 14 15
000
FTAK31 PANC 241137
TAFAVD
TAF
PAVD 241137Z 2412/2512 27006KT P6SM SCT060 BKN200
     FM241500 00000KT 6SM -RA SCT015 OVC025
     FM242100 VRB04KT 4SM -RA BR OVC015
      AMD LTD TO CLD VIS AND WIND=

USA.gov is the U.S. government's official web portal to all federal, state and local government web resources and services.